Gennaro Ievoli — 9HA3007 — position and weather

sailwx.info

Track history (hours):
 
Tides and Currents Weather Stations Pressure Air Temp Water Temp Dewpoint Dewpoint Depression Visibility Wind Speed Wind Dir Waves Ship Positions

Gennaro Ievoli

Last reported at 2017-Dec-10 12:31 UTC. Time now 2017-Dec-13 20:23 UTC.
Position N 36°34' E 023°48'.

Length 170 m; draft 8.1 m.

Type: Ship (hazmat cat B). MMSI: 229031000.

Date/timePositionNaut miles runAvg speedWind from/ knotsBaromVisibWave heightAir tempDewpointWater temp
2017-Dec-10 12:31N 36°34' E 023°48'212.6
2017-Dec-10 12:23N 36°35' E 023°50'512.5
2017-Dec-10 11:57N 36°39' E 023°54'612.9
2017-Dec-10 11:30N 36°44' E 023°59'713.2
2017-Dec-10 11:01N 36°49' E 024°03'714.1
2017-Dec-10 10:31N 36°56' E 024°04'714.1
2017-Dec-10 10:00N 37°03' E 024°05'713.8
2017-Dec-10 09:30N 37°10' E 024°05'713.5
2017-Dec-10 09:00N 37°17' E 024°06'713.7
2017-Dec-10 08:30N 37°24' E 024°06'713.7
2017-Dec-10 08:00N 37°31' E 024°06'713.1
2017-Dec-10 07:30N 37°37' E 024°10'813.3
2017-Dec-10 06:53N 37°44' E 024°14'512.7
2017-Dec-10 06:30N 37°47' E 024°19'713.1
2017-Dec-10 05:59N 37°51' E 024°26'612.3
2017-Dec-10 05:30N 37°54' E 024°32'  
2017-Dec-02 11:14N 37°56' E 025°47'313.3
2017-Dec-02 11:00N 37°53' E 025°48'713.7
2017-Dec-02 10:30N 37°46' E 025°48'913.6
2017-Dec-02 09:53N 37°38' E 025°49'513.8
2017-Dec-02 09:30N 37°33' E 025°49'713.4
2017-Dec-02 09:00N 37°26' E 025°50'613.0
2017-Dec-02 08:30N 37°20' E 025°54'713.3
2017-Dec-02 08:00N 37°15' E 025°58'713.3
2017-Dec-02 07:30N 37°09' E 026°03'713.2
2017-Dec-02 07:00N 37°04' E 026°08'713.2
2017-Dec-02 06:30N 36°58' E 026°12'612.9
2017-Dec-02 06:00N 36°53' E 026°18'612.9
2017-Dec-02 05:30N 36°48' E 026°23'613.1
2017-Dec-02 05:01N 36°44' E 026°29'713.0
2017-Dec-02 04:30N 36°39' E 026°34'713.1
2017-Dec-02 04:00N 36°35' E 026°40'1013.3
2017-Dec-02 03:17N 36°27' E 026°48'  
Track history (hours):
 
Tides and Currents Weather Stations Pressure Air Temp Water Temp Dewpoint Dewpoint Depression Visibility Wind Speed Wind Dir Waves Ship Positions

Gennaro Ievoli

Last reported at 2017-Dec-10 12:31 UTC. Time now 2017-Dec-13 20:23 UTC.
Position N 36°34' E 023°48'.

Length 170 m; draft 8.1 m.

Type: Ship (hazmat cat B). MMSI: 229031000.

Date/timePositionNaut miles runAvg speedWind from/ knotsBaromVisibWave heightAir tempDewpointWater temp
2017-Dec-10 12:31N 36°34' E 023°48'212.6
2017-Dec-10 12:23N 36°35' E 023°50'512.5
2017-Dec-10 11:57N 36°39' E 023°54'612.9
2017-Dec-10 11:30N 36°44' E 023°59'713.2
2017-Dec-10 11:01N 36°49' E 024°03'714.1
2017-Dec-10 10:31N 36°56' E 024°04'714.1
2017-Dec-10 10:00N 37°03' E 024°05'713.8
2017-Dec-10 09:30N 37°10' E 024°05'713.5
2017-Dec-10 09:00N 37°17' E 024°06'713.7
2017-Dec-10 08:30N 37°24' E 024°06'713.7
2017-Dec-10 08:00N 37°31' E 024°06'713.1
2017-Dec-10 07:30N 37°37' E 024°10'813.3
2017-Dec-10 06:53N 37°44' E 024°14'512.7
2017-Dec-10 06:30N 37°47' E 024°19'713.1
2017-Dec-10 05:59N 37°51' E 024°26'612.3
2017-Dec-10 05:30N 37°54' E 024°32'  
2017-Dec-02 11:14N 37°56' E 025°47'313.3
2017-Dec-02 11:00N 37°53' E 025°48'713.7
2017-Dec-02 10:30N 37°46' E 025°48'913.6
2017-Dec-02 09:53N 37°38' E 025°49'513.8
2017-Dec-02 09:30N 37°33' E 025°49'713.4
2017-Dec-02 09:00N 37°26' E 025°50'613.0
2017-Dec-02 08:30N 37°20' E 025°54'713.3
2017-Dec-02 08:00N 37°15' E 025°58'713.3
2017-Dec-02 07:30N 37°09' E 026°03'713.2
2017-Dec-02 07:00N 37°04' E 026°08'713.2
2017-Dec-02 06:30N 36°58' E 026°12'612.9
2017-Dec-02 06:00N 36°53' E 026°18'612.9
2017-Dec-02 05:30N 36°48' E 026°23'613.1
2017-Dec-02 05:01N 36°44' E 026°29'713.0
2017-Dec-02 04:30N 36°39' E 026°34'713.1
2017-Dec-02 04:00N 36°35' E 026°40'1013.3
2017-Dec-02 03:17N 36°27' E 026°48'  

Dump ship's entire track history